createdAt,value
2016-12-24T00:00:17.339Z,1006.76
2016-12-24T00:01:17.355Z,1006.69
2016-12-24T00:02:17.368Z,1006.76
2016-12-24T00:03:17.385Z,1006.72
2016-12-24T00:04:17.396Z,1006.65
2016-12-24T00:05:17.412Z,1006.57
2016-12-24T00:06:17.428Z,1006.59
2016-12-24T00:07:17.442Z,1006.55
2016-12-24T00:08:17.454Z,1006.59
2016-12-24T00:09:17.469Z,1006.54
2016-12-24T00:10:17.484Z,1006.57
2016-12-24T00:11:17.495Z,1006.58
2016-12-24T00:12:17.512Z,1006.58
2016-12-24T00:13:17.527Z,1006.43
2016-12-24T00:14:17.539Z,1006.47
2016-12-24T00:15:17.557Z,1006.52
2016-12-24T00:16:17.567Z,1006.54
2016-12-24T00:17:17.582Z,1006.49
2016-12-24T00:18:17.597Z,1006.41
2016-12-24T00:19:17.613Z,1006.41
2016-12-24T00:20:17.629Z,1006.34
2016-12-24T00:21:17.643Z,1006.43
2016-12-24T00:22:17.661Z,1006.34
2016-12-24T00:23:17.672Z,1006.36
2016-12-24T00:24:17.686Z,1006.05
2016-12-24T00:25:17.702Z,1006.08
2016-12-24T00:26:17.713Z,1006.16
2016-12-24T00:27:17.727Z,1006.21
2016-12-24T00:28:17.741Z,1006.21
2016-12-24T00:29:17.756Z,1006.14
2016-12-24T00:30:17.771Z,1006.13
2016-12-24T00:31:17.788Z,1006.04
2016-12-24T00:32:17.805Z,1006.13
2016-12-24T00:33:17.816Z,1006.2
2016-12-24T00:34:17.832Z,1006.18
2016-12-24T00:35:17.842Z,1006.19
2016-12-24T00:36:17.857Z,1006.08
2016-12-24T00:37:17.871Z,1006.07
2016-12-24T00:38:17.884Z,1005.96
2016-12-24T00:39:17.902Z,1006.01
2016-12-24T00:40:17.914Z,1005.94
2016-12-24T00:41:17.931Z,1005.96
2016-12-24T00:42:17.947Z,1005.97
2016-12-24T00:43:17.960Z,1005.96
2016-12-24T00:44:17.978Z,1006.06
2016-12-24T00:45:17.990Z,1006.09
2016-12-24T00:46:18.011Z,1006.11
2016-12-24T00:47:18.019Z,1006.05
2016-12-24T00:48:18.033Z,1006.04
2016-12-24T00:49:18.050Z,1006.05
2016-12-24T00:50:18.059Z,1006.05
2016-12-24T00:51:18.077Z,1006.05
2016-12-24T00:52:18.090Z,1006
2016-12-24T00:53:18.106Z,1006.08
2016-12-24T00:54:18.120Z,1006.04
2016-12-24T00:55:18.133Z,1005.99
2016-12-24T00:56:18.150Z,1006.04
2016-12-24T00:57:18.166Z,1006.04
2016-12-24T00:58:18.183Z,1006.05
2016-12-24T00:59:18.192Z,1005.97
2016-12-24T01:00:18.209Z,1005.95
2016-12-24T01:01:18.226Z,1005.98
2016-12-24T01:02:18.236Z,1006
2016-12-24T01:03:18.249Z,1006.03
2016-12-24T01:04:18.269Z,1005.99
2016-12-24T01:05:18.277Z,1005.98
2016-12-24T01:06:18.295Z,1005.91
2016-12-24T01:07:18.311Z,1005.97
2016-12-24T01:08:18.325Z,1005.93
2016-12-24T01:09:18.341Z,1006.04
2016-12-24T01:10:18.351Z,1006.04
2016-12-24T01:11:18.368Z,1006.05
2016-12-24T01:12:18.381Z,1006.06
2016-12-24T01:13:18.397Z,1005.99
2016-12-24T01:14:18.413Z,1005.99
2016-12-24T01:15:18.424Z,1006.03
2016-12-24T01:16:18.441Z,1006.05
2016-12-24T01:17:18.454Z,1006.07
2016-12-24T01:18:18.472Z,1006.07
2016-12-24T01:19:18.488Z,1006.07
2016-12-24T01:20:18.502Z,1005.99
2016-12-24T01:21:18.517Z,1006.03
2016-12-24T01:22:18.527Z,1006.11
2016-12-24T01:23:18.545Z,1006.07
2016-12-24T01:24:18.557Z,1006.14
2016-12-24T01:25:18.574Z,1006.14
2016-12-24T01:26:18.590Z,1006.1
2016-12-24T01:27:18.604Z,1006.15
2016-12-24T01:28:18.616Z,1006.14
2016-12-24T01:29:18.636Z,1006.16
2016-12-24T01:30:18.646Z,1006.18
2016-12-24T01:31:18.660Z,1006.13
2016-12-24T01:32:18.679Z,1006.19
2016-12-24T01:33:18.690Z,1006.17
2016-12-24T01:34:18.708Z,1006.13
2016-12-24T01:35:18.718Z,1006.19
2016-12-24T01:36:18.735Z,1006.21
2016-12-24T01:37:18.750Z,1006.19
2016-12-24T01:38:18.761Z,1006.2
2016-12-24T01:39:18.781Z,1006.2
2016-12-24T01:40:18.793Z,1006.22
2016-12-24T01:41:18.805Z,1006.24
2016-12-24T01:42:18.823Z,1006.2
2016-12-24T01:43:18.838Z,1006.16
2016-12-24T01:44:18.854Z,1006.14
2016-12-24T01:45:18.867Z,1006.18
2016-12-24T01:46:18.881Z,1006.24
2016-12-24T01:47:18.895Z,1006.25
2016-12-24T01:48:18.911Z,1006.23
2016-12-24T01:49:18.924Z,1006.23
2016-12-24T01:50:18.938Z,1006.16
2016-12-24T01:51:18.954Z,1006.2
2016-12-24T01:52:18.970Z,1006.2
2016-12-24T01:53:18.983Z,1006.24
2016-12-24T01:54:18.999Z,1006.24
2016-12-24T01:55:19.012Z,1006.25
2016-12-24T01:56:19.026Z,1006.2
2016-12-24T01:57:19.039Z,1006.21
2016-12-24T01:58:19.053Z,1006.23
2016-12-24T01:59:19.072Z,1006.26
2016-12-24T02:00:19.086Z,1006.23
2016-12-24T02:01:19.095Z,1006.23
2016-12-24T02:02:19.111Z,1006.25
2016-12-24T02:03:19.125Z,1006.18
2016-12-24T02:04:19.143Z,1006.22
2016-12-24T02:05:19.155Z,1006.16
2016-12-24T02:06:19.173Z,1006.19
2016-12-24T02:07:19.184Z,1006.26
2016-12-24T02:08:19.204Z,1006.21
2016-12-24T02:09:19.216Z,1006.27
2016-12-24T02:10:19.226Z,1006.27
2016-12-24T02:11:19.246Z,1006.29
2016-12-24T02:12:19.259Z,1006.27
2016-12-24T02:13:19.273Z,1006.24
2016-12-24T02:14:19.287Z,1006.26
2016-12-24T02:15:19.304Z,1006.28
2016-12-24T02:16:19.312Z,1006.28
2016-12-24T02:17:19.330Z,1006.25
2016-12-24T02:18:19.345Z,1006.23
2016-12-24T02:19:19.359Z,1006.26
2016-12-24T02:20:19.376Z,1006.22
2016-12-24T02:21:19.389Z,1006.2
2016-12-24T02:22:19.401Z,1006.24
2016-12-24T02:23:19.418Z,1006.19
2016-12-24T02:24:19.433Z,1006.21
2016-12-24T02:25:19.446Z,1006.21
2016-12-24T02:26:19.464Z,1006.26
2016-12-24T02:27:19.477Z,1006.21
2016-12-24T02:28:19.491Z,1006.2
2016-12-24T02:29:19.506Z,1006.16
2016-12-24T02:30:19.525Z,1006.17
2016-12-24T02:31:19.533Z,1006.1
2016-12-24T02:32:19.549Z,1006.14
2016-12-24T02:33:19.567Z,1006.12
2016-12-24T02:34:19.579Z,1006.12
2016-12-24T02:35:19.596Z,1006.1
2016-12-24T02:36:19.608Z,1006.07
2016-12-24T02:37:19.622Z,1006.09
2016-12-24T02:38:19.636Z,1006.09
2016-12-24T02:39:19.649Z,1006.06
2016-12-24T02:40:19.667Z,1006
2016-12-24T02:41:19.683Z,1006
2016-12-24T02:42:19.694Z,1006.03
2016-12-24T02:43:19.709Z,1006.01
2016-12-24T02:44:19.722Z,1005.98
2016-12-24T02:45:19.738Z,1006.03
2016-12-24T02:46:19.751Z,1006.03
2016-12-24T02:47:19.771Z,1005.99
2016-12-24T02:48:19.781Z,1005.95
2016-12-24T02:49:19.795Z,1005.95
2016-12-24T02:50:19.811Z,1005.99
2016-12-24T02:51:19.828Z,1006
2016-12-24T02:52:19.840Z,1005.98
2016-12-24T02:53:19.854Z,1005.99
2016-12-24T02:54:19.874Z,1005.99
2016-12-24T02:55:19.888Z,1005.98
2016-12-24T02:56:19.899Z,1006.01
2016-12-24T02:57:19.917Z,1005.93
2016-12-24T02:58:19.930Z,1005.93
2016-12-24T02:59:19.944Z,1005.96
2016-12-24T03:00:19.958Z,1005.97
2016-12-24T03:01:19.976Z,1005.98
2016-12-24T03:02:19.986Z,1005.97
2016-12-24T03:03:20.003Z,1006.01
2016-12-24T03:04:20.016Z,1006.04
2016-12-24T03:05:20.033Z,1005.97
2016-12-24T03:06:20.047Z,1005.93
2016-12-24T03:07:20.059Z,1005.96
2016-12-24T03:08:20.073Z,1005.93
2016-12-24T03:09:20.089Z,1005.94
2016-12-24T03:10:20.103Z,1005.98
2016-12-24T03:11:20.119Z,1005.94
2016-12-24T03:12:20.133Z,1005.99
2016-12-24T03:13:20.149Z,1005.97
2016-12-24T03:14:20.162Z,1005.96
2016-12-24T03:15:20.174Z,1006
2016-12-24T03:16:20.196Z,1005.93
2016-12-24T03:17:20.209Z,1005.97
2016-12-24T03:18:20.217Z,1005.96
2016-12-24T03:19:20.238Z,1005.97
2016-12-24T03:20:20.254Z,1005.95
2016-12-24T03:21:20.273Z,1005.92
2016-12-24T03:22:20.279Z,1005.91
2016-12-24T03:23:20.297Z,1005.94
2016-12-24T03:24:20.312Z,1005.94
2016-12-24T03:25:20.324Z,1005.96
2016-12-24T03:26:20.338Z,1005.9
2016-12-24T03:27:20.354Z,1005.92
2016-12-24T03:28:20.368Z,1005.96
2016-12-24T03:29:20.383Z,1005.92
2016-12-24T03:30:20.400Z,1005.94
2016-12-24T03:31:20.414Z,1005.99
2016-12-24T03:32:20.427Z,1005.91
2016-12-24T03:33:20.441Z,1005.89
2016-12-24T03:34:20.457Z,1005.89
2016-12-24T03:35:20.474Z,1005.9
2016-12-24T03:36:20.491Z,1005.94
2016-12-24T03:37:20.504Z,1005.99
2016-12-24T03:38:20.514Z,1005.91
2016-12-24T03:39:20.530Z,1005.89
2016-12-24T03:40:20.544Z,1006
2016-12-24T03:41:20.559Z,1006.01
2016-12-24T03:42:20.576Z,1005.92
2016-12-24T03:43:20.586Z,1005.97
2016-12-24T03:44:20.603Z,1006.01
2016-12-24T03:45:20.620Z,1006.01
2016-12-24T03:46:20.631Z,1006.01
2016-12-24T03:47:20.650Z,1006.01
2016-12-24T03:48:20.660Z,1005.92
2016-12-24T03:49:20.678Z,1006
2016-12-24T03:50:20.693Z,1005.94
2016-12-24T03:51:20.708Z,1005.96
2016-12-24T03:52:20.722Z,1005.94
2016-12-24T03:53:20.739Z,1005.9
2016-12-24T03:54:20.749Z,1005.87
2016-12-24T03:55:20.766Z,1005.84
2016-12-24T03:56:20.779Z,1005.79
2016-12-24T03:57:20.800Z,1005.86
2016-12-24T03:58:20.809Z,1005.86
2016-12-24T03:59:20.821Z,1005.95
2016-12-24T04:01:20.849Z,1005.97
2016-12-24T04:02:20.863Z,1005.97
2016-12-24T04:03:20.880Z,1005.99
2016-12-24T04:04:20.893Z,1005.96
2016-12-24T04:05:20.909Z,1006.02
2016-12-24T04:06:20.924Z,1005.99
2016-12-24T04:07:20.934Z,1006.01
2016-12-24T04:08:20.954Z,1005.96
2016-12-24T04:09:20.967Z,1006
2016-12-24T04:10:20.984Z,1006.05
2016-12-24T04:11:20.997Z,1006
2016-12-24T04:12:21.014Z,1006.05
2016-12-24T04:13:21.023Z,1006.06
2016-12-24T04:14:21.039Z,1006.1
2016-12-24T04:15:21.056Z,1006.03
2016-12-24T04:16:21.070Z,1005.96
2016-12-24T04:17:21.086Z,1005.97
2016-12-24T04:18:21.096Z,1005.96
2016-12-24T04:19:21.112Z,1005.95
2016-12-24T04:20:21.126Z,1006
2016-12-24T04:21:21.142Z,1006.01
2016-12-24T04:22:21.156Z,1005.95
2016-12-24T04:23:21.171Z,1006
2016-12-24T04:24:21.189Z,1005.98
2016-12-24T04:25:21.200Z,1005.94
2016-12-24T04:26:21.219Z,1005.98
2016-12-24T04:27:21.232Z,1006
2016-12-24T04:28:21.245Z,1005.99
2016-12-24T04:29:21.263Z,1005.96
2016-12-24T04:30:21.279Z,1006.05
2016-12-24T04:31:21.286Z,1005.99
2016-12-24T04:32:21.304Z,1005.94
2016-12-24T04:33:21.322Z,1005.98
2016-12-24T04:34:21.334Z,1005.92
2016-12-24T04:35:21.348Z,1005.99
2016-12-24T04:36:21.365Z,1005.98
2016-12-24T04:37:21.379Z,1005.95
2016-12-24T04:38:21.395Z,1006.03
2016-12-24T04:39:21.407Z,1006.07
2016-12-24T04:40:21.425Z,1005.96
2016-12-24T04:41:21.435Z,1005.99
2016-12-24T04:42:21.452Z,1005.95
2016-12-24T04:43:21.467Z,1005.91
2016-12-24T04:44:21.478Z,1005.87
2016-12-24T04:45:21.495Z,1005.87
2016-12-24T04:46:21.511Z,1005.88
2016-12-24T04:47:21.527Z,1005.91
2016-12-24T04:48:21.538Z,1005.91
2016-12-24T04:49:21.551Z,1005.95
2016-12-24T04:50:21.569Z,1005.92
2016-12-24T04:51:21.584Z,1005.91
2016-12-24T04:52:21.600Z,1005.94
2016-12-24T04:53:21.614Z,1005.94
2016-12-24T04:54:21.629Z,1006
2016-12-24T04:55:21.644Z,1005.91
2016-12-24T04:56:21.662Z,1005.95
2016-12-24T04:57:21.674Z,1005.96
2016-12-24T04:58:21.690Z,1006.04
2016-12-24T04:59:21.700Z,1005.95
2016-12-24T05:00:21.713Z,1005.95
2016-12-24T05:01:21.731Z,1005.84
2016-12-24T05:02:21.746Z,1005.97
2016-12-24T05:03:21.764Z,1005.95
2016-12-24T05:04:21.777Z,1006
2016-12-24T05:05:21.792Z,1005.97
2016-12-24T05:06:21.807Z,1006
2016-12-24T05:07:21.823Z,1006
2016-12-24T05:08:21.837Z,1005.85
2016-12-24T05:09:21.853Z,1005.86
2016-12-24T05:10:21.863Z,1005.87
2016-12-24T05:11:21.877Z,1005.88
2016-12-24T05:12:21.894Z,1005.98
2016-12-24T05:13:21.907Z,1005.98
2016-12-24T05:14:21.924Z,1005.95
2016-12-24T05:15:21.937Z,1005.93
2016-12-24T05:16:21.956Z,1005.92
2016-12-24T05:17:21.969Z,1005.96
2016-12-24T05:18:21.982Z,1005.95
2016-12-24T05:19:22.000Z,1005.96
2016-12-24T05:20:22.012Z,1005.95
2016-12-24T05:21:22.030Z,1005.97
2016-12-24T05:22:22.043Z,1005.99
2016-12-24T05:23:22.059Z,1005.96
2016-12-24T05:24:22.071Z,1006.04
2016-12-24T05:25:22.086Z,1006
2016-12-24T05:26:22.102Z,1005.96
2016-12-24T05:27:22.119Z,1005.99
2016-12-24T05:28:22.129Z,1006.03
2016-12-24T05:29:22.145Z,1006.02
2016-12-24T05:30:22.157Z,1006.04
2016-12-24T05:31:22.180Z,1006.01
2016-12-24T05:32:22.189Z,1005.95
2016-12-24T05:33:22.202Z,1005.91
2016-12-24T05:34:22.224Z,1005.97
2016-12-24T05:35:22.233Z,1006.01
2016-12-24T05:36:22.252Z,1006.03
2016-12-24T05:37:22.262Z,1006.08
2016-12-24T05:38:22.278Z,1005.99
2016-12-24T05:39:22.295Z,1006.04
2016-12-24T05:40:22.307Z,1006.08
2016-12-24T05:41:22.322Z,1006.06
2016-12-24T05:42:22.339Z,1006.11
2016-12-24T05:43:22.356Z,1006.07
2016-12-24T05:44:22.365Z,1006.12
2016-12-24T05:45:22.384Z,1006.13
2016-12-24T05:46:22.395Z,1006.07
2016-12-24T05:47:22.415Z,1006.12
2016-12-24T05:48:22.426Z,1006.06
2016-12-24T05:49:22.445Z,1006.14
2016-12-24T05:50:22.457Z,1006.11
2016-12-24T05:51:22.468Z,1006.15
2016-12-24T05:52:22.488Z,1006.18
2016-12-24T05:53:22.505Z,1006.22
2016-12-24T05:54:22.515Z,1006.22
2016-12-24T05:55:22.530Z,1006.23
2016-12-24T05:56:22.547Z,1006.17
2016-12-24T05:57:22.561Z,1006.24
2016-12-24T05:58:22.574Z,1006.17
2016-12-24T05:59:22.589Z,1006.28
2016-12-24T06:00:22.606Z,1006.22
2016-12-24T06:01:22.619Z,1006.17
2016-12-24T06:02:22.635Z,1006.17
2016-12-24T06:03:22.651Z,1006.15
2016-12-24T06:04:22.666Z,1006.13
2016-12-24T06:05:22.680Z,1006.1
2016-12-24T06:06:22.690Z,1006.18
2016-12-24T06:07:22.707Z,1006.15
2016-12-24T06:08:22.725Z,1006.19
2016-12-24T06:09:22.739Z,1006.19
2016-12-24T06:10:22.752Z,1006.23
2016-12-24T06:11:22.767Z,1006.23
2016-12-24T06:12:22.781Z,1006.24
2016-12-24T06:13:22.798Z,1006.26
2016-12-24T06:14:22.812Z,1006.26
2016-12-24T06:15:22.829Z,1006.25
2016-12-24T06:16:22.843Z,1006.31
2016-12-24T06:17:22.859Z,1006.27
2016-12-24T06:18:22.872Z,1006.25
2016-12-24T06:19:22.889Z,1006.26
2016-12-24T06:20:22.902Z,1006.28
2016-12-24T06:21:22.916Z,1006.35
2016-12-24T06:22:22.930Z,1006.3
2016-12-24T06:23:22.949Z,1006.36
2016-12-24T06:24:22.961Z,1006.34
2016-12-24T06:25:22.976Z,1006.35
2016-12-24T06:26:22.992Z,1006.41
2016-12-24T06:27:23.003Z,1006.38
2016-12-24T06:28:23.021Z,1006.39
2016-12-24T06:29:23.035Z,1006.42
2016-12-24T06:30:23.052Z,1006.35
2016-12-24T06:31:23.065Z,1006.33
2016-12-24T06:32:23.081Z,1006.34
2016-12-24T06:33:23.095Z,1006.34
2016-12-24T06:34:23.109Z,1006.36
2016-12-24T06:35:23.122Z,1006.36
2016-12-24T06:36:23.139Z,1006.45
2016-12-24T06:37:23.158Z,1006.43
2016-12-24T06:38:23.171Z,1006.47
2016-12-24T06:39:23.185Z,1006.46
2016-12-24T06:40:23.198Z,1006.52
2016-12-24T06:41:23.213Z,1006.49
2016-12-24T06:42:23.228Z,1006.53
2016-12-24T06:43:23.243Z,1006.47
2016-12-24T06:44:23.255Z,1006.5
2016-12-24T06:45:23.278Z,1006.54
2016-12-24T06:46:23.287Z,1006.65
2016-12-24T06:47:23.303Z,1006.7
2016-12-24T06:48:23.318Z,1006.6
2016-12-24T06:49:23.331Z,1006.58
2016-12-24T06:50:23.347Z,1006.51
2016-12-24T06:51:23.360Z,1006.63
2016-12-24T06:52:23.378Z,1006.53
2016-12-24T06:53:23.395Z,1006.61
2016-12-24T06:54:23.404Z,1006.54
2016-12-24T06:55:23.422Z,1006.56
2016-12-24T06:56:23.433Z,1006.55
2016-12-24T06:57:23.450Z,1006.56
2016-12-24T06:58:23.468Z,1006.46
2016-12-24T06:59:23.480Z,1006.52
2016-12-24T07:00:23.494Z,1006.49
2016-12-24T07:01:23.507Z,1006.53
2016-12-24T07:02:23.527Z,1006.62
2016-12-24T07:03:23.545Z,1006.68
2016-12-24T07:04:23.554Z,1006.59
2016-12-24T07:05:23.574Z,1006.5
2016-12-24T07:06:23.584Z,1006.56
2016-12-24T07:07:23.602Z,1006.62
2016-12-24T07:08:23.616Z,1006.68
2016-12-24T07:09:23.631Z,1006.72
2016-12-24T07:10:23.644Z,1006.76
2016-12-24T07:11:23.661Z,1006.79
2016-12-24T07:12:23.674Z,1006.77
2016-12-24T07:13:23.693Z,1006.82
2016-12-24T07:14:23.707Z,1006.87
2016-12-24T07:15:23.716Z,1006.73
2016-12-24T07:16:23.733Z,1006.69
2016-12-24T07:17:23.749Z,1006.72
2016-12-24T07:18:23.765Z,1006.72
2016-12-24T07:19:23.779Z,1006.74
2016-12-24T07:20:23.796Z,1006.76
2016-12-24T07:21:23.808Z,1006.8
2016-12-24T07:22:23.825Z,1006.74
2016-12-24T07:23:23.836Z,1006.85
2016-12-24T07:24:23.854Z,1006.84
2016-12-24T07:25:23.866Z,1006.83
2016-12-24T07:26:23.881Z,1006.79
2016-12-24T07:27:23.895Z,1006.81
2016-12-24T07:28:23.913Z,1006.81
2016-12-24T07:29:23.928Z,1006.76
2016-12-24T07:30:23.941Z,1006.77
2016-12-24T07:31:23.956Z,1006.81
2016-12-24T07:32:23.976Z,1006.81
2016-12-24T07:33:23.989Z,1006.76
2016-12-24T07:34:23.998Z,1006.81
2016-12-24T07:35:24.019Z,1006.85
2016-12-24T07:36:24.029Z,1006.89
2016-12-24T07:37:24.045Z,1006.87
2016-12-24T07:38:24.061Z,1006.86
2016-12-24T07:39:24.077Z,1006.84
2016-12-24T07:40:24.095Z,1006.79
2016-12-24T07:41:24.105Z,1006.7
2016-12-24T07:42:24.118Z,1006.73
2016-12-24T07:43:24.136Z,1006.7
2016-12-24T07:44:24.150Z,1006.73
2016-12-24T07:45:24.164Z,1006.66
2016-12-24T07:46:24.180Z,1006.6
2016-12-24T07:47:24.196Z,1006.64
2016-12-24T07:48:24.210Z,1006.72
2016-12-24T07:49:24.227Z,1006.7
2016-12-24T07:50:24.237Z,1006.71
2016-12-24T07:51:24.254Z,1006.74
2016-12-24T07:52:24.270Z,1006.77
2016-12-24T07:53:24.283Z,1006.79
2016-12-24T07:54:24.300Z,1006.8
2016-12-24T07:55:24.314Z,1006.8
2016-12-24T07:56:24.331Z,1006.85
2016-12-24T07:57:24.342Z,1006.79
2016-12-24T07:58:24.357Z,1006.77
2016-12-24T07:59:24.373Z,1006.77
2016-12-24T08:00:24.389Z,1006.76
2016-12-24T08:01:24.402Z,1006.74
2016-12-24T08:02:24.420Z,1006.74
2016-12-24T08:03:24.434Z,1006.76
2016-12-24T08:04:24.449Z,1006.72
2016-12-24T08:05:24.460Z,1006.75
2016-12-24T08:06:24.480Z,1006.68
2016-12-24T08:07:24.493Z,1006.74
2016-12-24T08:08:24.509Z,1006.67
2016-12-24T08:09:24.519Z,1006.62
2016-12-24T08:10:24.536Z,1006.68
2016-12-24T08:11:24.552Z,1006.69
2016-12-24T08:12:24.566Z,1006.65
2016-12-24T08:13:24.580Z,1006.67
2016-12-24T08:14:24.596Z,1006.66
2016-12-24T08:15:24.609Z,1006.63
2016-12-24T08:16:24.624Z,1006.58
2016-12-24T08:17:24.640Z,1006.6
2016-12-24T08:18:24.656Z,1006.6
2016-12-24T08:19:24.669Z,1006.55
2016-12-24T08:20:24.687Z,1006.54
2016-12-24T08:21:24.699Z,1006.53
2016-12-24T08:22:24.716Z,1006.48
2016-12-24T08:23:24.728Z,1006.51
2016-12-24T08:24:24.749Z,1006.46
2016-12-24T08:25:24.760Z,1006.42
2016-12-24T08:26:24.777Z,1006.41
2016-12-24T08:27:24.788Z,1006.43
2016-12-24T08:28:24.804Z,1006.35
2016-12-24T08:29:24.818Z,1006.36
2016-12-24T08:30:24.831Z,1006.31
2016-12-24T08:31:24.851Z,1006.29
2016-12-24T08:32:24.864Z,1006.25
2016-12-24T08:33:24.880Z,1006.23
2016-12-24T08:34:24.895Z,1006.2
2016-12-24T08:35:24.911Z,1006.23
2016-12-24T08:36:24.924Z,1006.18
2016-12-24T08:37:24.939Z,1006.19
2016-12-24T08:38:24.957Z,1006.15
2016-12-24T08:39:24.969Z,1006.17
2016-12-24T08:40:24.986Z,1006.14
2016-12-24T08:41:25.002Z,1006.16
2016-12-24T08:42:25.017Z,1006.13
2016-12-24T08:43:25.027Z,1006.17
2016-12-24T08:44:25.046Z,1006.19
2016-12-24T08:45:25.061Z,1006.29
2016-12-24T08:46:25.074Z,1006.24
2016-12-24T08:47:25.090Z,1006.3
2016-12-24T08:48:25.108Z,1006.26
2016-12-24T08:49:25.118Z,1006.31
2016-12-24T08:50:25.136Z,1006.38
2016-12-24T08:51:25.147Z,1006.4
2016-12-24T08:52:25.167Z,1006.42
2016-12-24T08:53:25.183Z,1006.46
2016-12-24T08:54:25.195Z,1006.53
2016-12-24T08:55:25.210Z,1006.6
2016-12-24T08:56:25.227Z,1006.59
2016-12-24T08:57:25.242Z,1006.63
2016-12-24T08:58:25.256Z,1006.65
2016-12-24T08:59:25.269Z,1006.64
2016-12-24T09:00:25.285Z,1006.58
2016-12-24T09:01:25.300Z,1006.61
2016-12-24T09:02:25.318Z,1006.62
2016-12-24T09:03:25.331Z,1006.7
2016-12-24T09:04:25.347Z,1006.73
2016-12-24T09:05:25.362Z,1006.73
2016-12-24T09:06:25.372Z,1006.76
2016-12-24T09:07:25.391Z,1006.69
2016-12-24T09:08:25.406Z,1006.7
2016-12-24T09:09:25.420Z,1006.66
2016-12-24T09:10:25.437Z,1006.62
2016-12-24T09:11:25.453Z,1006.62
2016-12-24T09:12:25.467Z,1006.64
2016-12-24T09:13:25.479Z,1006.65
2016-12-24T09:14:25.497Z,1006.69
2016-12-24T09:15:25.510Z,1006.78
2016-12-24T09:16:25.528Z,1006.77
2016-12-24T09:17:25.544Z,1006.86
2016-12-24T09:18:25.556Z,1006.89
2016-12-24T09:19:25.576Z,1006.83
2016-12-24T09:20:25.589Z,1006.95
2016-12-24T09:21:25.602Z,1006.99
2016-12-24T09:22:25.619Z,1007.02
2016-12-24T09:23:25.633Z,1006.97
2016-12-24T09:24:25.650Z,1007.02
2016-12-24T09:25:25.663Z,1006.91
2016-12-24T09:26:25.683Z,1006.96
2016-12-24T09:27:25.697Z,1006.97
2016-12-24T09:28:25.709Z,1006.96
2016-12-24T09:29:25.722Z,1006.97
2016-12-24T09:30:25.743Z,1007.05
2016-12-24T09:31:25.755Z,1007.04
2016-12-24T09:32:25.772Z,1007.03
2016-12-24T09:33:25.786Z,1007.08
2016-12-24T09:34:25.799Z,1007.14
2016-12-24T09:35:25.815Z,1007.12
2016-12-24T09:36:25.833Z,1007.19
2016-12-24T09:37:25.849Z,1007.23
2016-12-24T09:38:25.860Z,1007.18
2016-12-24T09:39:25.876Z,1007.2
2016-12-24T09:40:25.890Z,1007.21
2016-12-24T09:41:25.917Z,1007.21
2016-12-24T09:42:25.922Z,1007.32
2016-12-24T09:43:25.939Z,1007.2
2016-12-24T09:44:25.953Z,1007.21
2016-12-24T09:45:25.969Z,1007.12
2016-12-24T09:46:25.982Z,1007.15
2016-12-24T09:47:25.999Z,1007.16
2016-12-24T09:48:26.015Z,1007.22
2016-12-24T09:49:26.029Z,1007.21
2016-12-24T09:50:26.046Z,1007.24
2016-12-24T09:51:26.060Z,1007.23
2016-12-24T09:52:26.073Z,1007.13
2016-12-24T09:53:26.085Z,1007.13
2016-12-24T09:54:26.102Z,1007.06
2016-12-24T09:55:26.119Z,1007.01
2016-12-24T09:56:26.133Z,1006.99
2016-12-24T09:57:26.203Z,1006.92
2016-12-24T09:58:26.165Z,1006.92
2016-12-24T09:59:26.179Z,1006.88
2016-12-24T10:00:26.198Z,1006.93
2016-12-24T10:01:26.212Z,1006.89
2016-12-24T10:02:26.227Z,1006.86
2016-12-24T10:03:26.243Z,1006.76
2016-12-24T10:04:26.256Z,1006.8
2016-12-24T10:05:26.272Z,1006.88
2016-12-24T10:06:26.287Z,1006.85
2016-12-24T10:07:26.305Z,1006.93
2016-12-24T10:08:26.316Z,1006.9
2016-12-24T10:09:26.335Z,1006.97
2016-12-24T10:10:26.353Z,1006.98
2016-12-24T10:11:26.363Z,1006.99
2016-12-24T10:12:26.380Z,1006.98
2016-12-24T10:13:26.392Z,1006.94
2016-12-24T10:14:26.409Z,1006.86
2016-12-24T10:15:26.426Z,1006.84
2016-12-24T10:16:26.447Z,1006.84
2016-12-24T10:17:26.459Z,1006.83
2016-12-24T10:18:26.473Z,1006.75
2016-12-24T10:19:26.488Z,1006.8
2016-12-24T10:20:26.507Z,1006.81
2016-12-24T10:21:26.520Z,1006.76
2016-12-24T10:22:26.533Z,1006.79
2016-12-24T10:23:26.550Z,1006.75
2016-12-24T10:24:26.569Z,1006.7
2016-12-24T10:25:26.584Z,1006.67
2016-12-24T10:26:26.599Z,1006.75
2016-12-24T10:27:26.613Z,1006.74
2016-12-24T10:28:26.629Z,1006.78
2016-12-24T10:29:26.647Z,1006.73
2016-12-24T10:30:26.658Z,1006.76
2016-12-24T10:31:26.676Z,1006.79
2016-12-24T10:32:26.692Z,1006.76
2016-12-24T10:33:26.707Z,1006.75
2016-12-24T10:34:26.721Z,1006.73
2016-12-24T10:35:26.736Z,1006.74
2016-12-24T10:36:26.750Z,1006.65
2016-12-24T10:37:26.767Z,1006.73
2016-12-24T10:38:26.782Z,1006.72
2016-12-24T10:39:26.799Z,1006.76
2016-12-24T10:40:26.814Z,1006.75
2016-12-24T10:41:26.828Z,1006.85
2016-12-24T10:42:26.846Z,1006.82
2016-12-24T10:43:26.860Z,1006.79
2016-12-24T10:44:26.877Z,1006.75
2016-12-24T10:45:26.890Z,1006.78
2016-12-24T10:46:26.905Z,1006.7
2016-12-24T10:47:26.920Z,1006.68
2016-12-24T10:48:26.937Z,1006.73
2016-12-24T10:49:26.953Z,1006.71
2016-12-24T10:50:26.966Z,1006.8
2016-12-24T10:51:26.982Z,1006.74
2016-12-24T10:52:27.000Z,1006.71
2016-12-24T10:53:27.013Z,1006.65
2016-12-24T10:54:27.030Z,1006.76
2016-12-24T10:55:27.046Z,1006.68
2016-12-24T10:56:27.064Z,1006.82
2016-12-24T10:57:27.076Z,1006.76
2016-12-24T10:58:27.092Z,1006.66
2016-12-24T10:59:27.111Z,1006.69
2016-12-24T11:00:27.126Z,1006.73
2016-12-24T11:01:27.140Z,1006.71
2016-12-24T11:02:27.156Z,1006.65
2016-12-24T11:03:27.173Z,1006.63
2016-12-24T11:04:27.185Z,1006.61
2016-12-24T11:05:27.204Z,1006.59
2016-12-24T11:06:27.220Z,1006.58
2016-12-24T11:07:27.233Z,1006.69
2016-12-24T11:08:27.247Z,1006.65
2016-12-24T11:09:27.263Z,1006.7
2016-12-24T11:10:27.277Z,1006.73
2016-12-24T11:11:27.297Z,1006.73
2016-12-24T11:12:27.319Z,1006.68
2016-12-24T11:13:27.327Z,1006.72
2016-12-24T11:14:27.341Z,1006.67
2016-12-24T11:15:27.355Z,1006.65
2016-12-24T11:16:27.374Z,1006.6
2016-12-24T11:17:27.391Z,1006.6
2016-12-24T11:18:27.406Z,1006.61
2016-12-24T11:19:27.418Z,1006.61
2016-12-24T11:20:27.438Z,1006.61
2016-12-24T11:21:27.447Z,1006.58
2016-12-24T11:22:27.464Z,1006.58
2016-12-24T11:23:27.484Z,1006.62
2016-12-24T11:24:27.495Z,1006.6
2016-12-24T11:25:27.514Z,1006.62
2016-12-24T11:26:27.531Z,1006.56
2016-12-24T11:27:27.547Z,1006.65
2016-12-24T11:28:27.561Z,1006.73
2016-12-24T11:29:27.575Z,1006.65
2016-12-24T11:30:27.594Z,1006.65
2016-12-24T11:31:27.605Z,1006.71
2016-12-24T11:32:27.621Z,1006.66
2016-12-24T11:33:27.638Z,1006.64
2016-12-24T11:34:27.655Z,1006.69
2016-12-24T11:35:27.670Z,1006.78
2016-12-24T11:36:27.684Z,1006.81
2016-12-24T11:37:27.699Z,1006.72
2016-12-24T11:38:27.715Z,1006.78
2016-12-24T11:39:27.731Z,1006.8
2016-12-24T11:40:27.747Z,1006.83
2016-12-24T11:41:27.764Z,1006.73
2016-12-24T11:42:27.780Z,1006.78
2016-12-24T11:43:27.792Z,1006.72
2016-12-24T11:44:27.810Z,1006.63
2016-12-24T11:45:27.824Z,1006.66
2016-12-24T11:46:27.845Z,1006.66
2016-12-24T11:47:27.858Z,1006.79
2016-12-24T11:48:27.874Z,1006.76
2016-12-24T11:49:27.891Z,1006.84
2016-12-24T11:50:27.904Z,1006.73
2016-12-24T11:51:27.920Z,1006.74
2016-12-24T11:52:27.934Z,1006.69
2016-12-24T11:53:27.951Z,1006.62
2016-12-24T11:54:27.967Z,1006.61
2016-12-24T11:55:27.984Z,1006.54
2016-12-24T11:56:27.998Z,1006.53
2016-12-24T11:57:28.017Z,1006.53
2016-12-24T11:58:28.032Z,1006.57
2016-12-24T11:59:28.045Z,1006.55
2016-12-24T12:00:28.061Z,1006.5
2016-12-24T12:01:28.077Z,1006.5
2016-12-24T12:02:28.092Z,1006.57
2016-12-24T12:03:28.108Z,1006.54
2016-12-24T12:04:28.124Z,1006.57
2016-12-24T12:05:28.141Z,1006.5
2016-12-24T12:06:28.158Z,1006.51
2016-12-24T12:07:28.170Z,1006.56
2016-12-24T12:08:28.189Z,1006.5
2016-12-24T12:09:28.202Z,1006.56
2016-12-24T12:10:28.218Z,1006.54